createdAt,value
2023-12-30T00:01:33.590Z,9.02
2023-12-30T00:04:07.956Z,9.05
2023-12-30T00:06:42.494Z,9.08
2023-12-30T00:09:15.995Z,9.10
2023-12-30T00:11:50.076Z,9.12
2023-12-30T00:14:24.468Z,9.15
2023-12-30T00:16:58.347Z,9.17
2023-12-30T00:19:35.466Z,9.19
2023-12-30T00:22:10.538Z,9.18
2023-12-30T00:24:45.549Z,9.15
2023-12-30T00:27:19.614Z,9.11
2023-12-30T00:29:54.229Z,9.05
2023-12-30T00:32:28.317Z,8.98
2023-12-30T00:35:03.181Z,8.90
2023-12-30T00:37:37.482Z,8.81
2023-12-30T00:40:14.941Z,8.71
2023-12-30T00:42:51.521Z,8.63
2023-12-30T00:45:25.573Z,8.55
2023-12-30T00:48:01.049Z,8.50
2023-12-30T00:50:34.776Z,8.45
2023-12-30T00:53:08.602Z,8.42
2023-12-30T00:55:42.355Z,8.41
2023-12-30T00:58:17.065Z,8.41
2023-12-30T01:00:50.866Z,8.42
2023-12-30T01:03:24.933Z,8.44
2023-12-30T01:05:59.020Z,8.45
2023-12-30T01:08:32.668Z,8.45
2023-12-30T01:11:06.771Z,8.46
2023-12-30T01:13:40.862Z,8.43
2023-12-30T01:16:15.988Z,8.38
2023-12-30T01:18:50.094Z,8.33
2023-12-30T01:21:24.170Z,8.30
2023-12-30T01:23:58.141Z,8.28
2023-12-30T01:26:32.193Z,8.26
2023-12-30T01:29:05.811Z,8.26
2023-12-30T01:31:39.687Z,8.26
2023-12-30T01:34:13.590Z,8.25
2023-12-30T01:36:48.176Z,8.20
2023-12-30T01:39:21.923Z,8.14
2023-12-30T01:41:56.175Z,8.08
2023-12-30T01:44:29.927Z,8.01
2023-12-30T01:47:04.716Z,7.93
2023-12-30T01:49:39.220Z,7.85
2023-12-30T01:52:13.345Z,7.78
2023-12-30T01:54:47.451Z,7.72
2023-12-30T01:57:21.393Z,7.64
2023-12-30T01:59:56.060Z,7.57
2023-12-30T02:02:30.504Z,7.50
2023-12-30T02:05:04.205Z,7.45
2023-12-30T02:07:38.562Z,7.39
2023-12-30T02:10:13.595Z,7.35
2023-12-30T02:12:48.340Z,7.32
2023-12-30T02:15:23.646Z,7.31
2023-12-30T02:17:58.232Z,7.29
2023-12-30T02:20:32.936Z,7.29
2023-12-30T02:23:07.375Z,7.29
2023-12-30T02:25:41.145Z,7.30
2023-12-30T02:28:17.215Z,7.32
2023-12-30T02:30:50.834Z,7.35
2023-12-30T02:33:24.811Z,7.39
2023-12-30T02:35:59.182Z,7.44
2023-12-30T02:38:33.253Z,7.48
2023-12-30T02:41:07.545Z,7.53
2023-12-30T02:43:49.660Z,7.58
2023-12-30T02:46:23.520Z,7.63
2023-12-30T02:48:58.304Z,7.68
2023-12-30T02:51:32.424Z,7.73
2023-12-30T02:54:06.692Z,7.74
2023-12-30T02:56:40.608Z,7.75
2023-12-30T02:59:14.816Z,7.76
2023-12-30T03:01:48.708Z,7.77
2023-12-30T03:04:22.433Z,7.77
2023-12-30T03:06:57.494Z,7.76
2023-12-30T03:09:31.328Z,7.73
2023-12-30T03:12:04.866Z,7.69
2023-12-30T03:14:42.050Z,7.63
2023-12-30T03:17:15.757Z,7.57
2023-12-30T03:19:50.155Z,7.50
2023-12-30T03:22:23.823Z,7.46
2023-12-30T03:24:57.639Z,7.41
2023-12-30T03:27:31.411Z,7.36
2023-12-30T03:30:05.777Z,7.32
2023-12-30T03:32:41.320Z,7.27
2023-12-30T03:35:14.995Z,7.20
2023-12-30T03:37:54.132Z,7.15
2023-12-30T03:40:28.966Z,7.10
2023-12-30T03:43:02.989Z,7.07
2023-12-30T03:45:36.936Z,7.05
2023-12-30T03:48:11.444Z,7.04
2023-12-30T03:50:45.164Z,7.04
2023-12-30T03:53:18.871Z,7.03
2023-12-30T03:55:56.154Z,7.03
2023-12-30T03:58:29.716Z,7.02
2023-12-30T04:01:04.377Z,7.01
2023-12-30T04:03:38.061Z,6.99
2023-12-30T04:06:20.826Z,6.99
2023-12-30T04:08:54.835Z,7.01
2023-12-30T04:11:28.404Z,7.05
2023-12-30T04:14:04.962Z,7.10
2023-12-30T04:16:38.566Z,7.18
2023-12-30T04:19:17.901Z,7.25
2023-12-30T04:21:52.092Z,7.32
2023-12-30T04:24:26.378Z,7.39
2023-12-30T04:27:00.309Z,7.46
2023-12-30T04:29:39.064Z,7.52
2023-12-30T04:32:13.219Z,7.60
2023-12-30T04:34:46.985Z,7.67
2023-12-30T04:37:22.273Z,7.74
2023-12-30T04:40:01.338Z,7.81
2023-12-30T04:42:34.804Z,7.87
2023-12-30T04:45:14.248Z,7.91
2023-12-30T04:47:49.356Z,7.94
2023-12-30T04:50:24.838Z,7.93
2023-12-30T04:52:59.655Z,7.84
2023-12-30T04:55:33.487Z,7.74
2023-12-30T04:58:07.369Z,7.63
2023-12-30T05:00:57.782Z,7.53
2023-12-30T05:03:31.790Z,7.44
2023-12-30T05:06:06.073Z,7.37
2023-12-30T05:08:40.806Z,7.33
2023-12-30T05:11:17.602Z,7.28
2023-12-30T05:14:05.615Z,7.23
2023-12-30T05:16:47.428Z,7.17
2023-12-30T05:19:21.365Z,7.13
2023-12-30T05:21:55.953Z,7.09
2023-12-30T05:24:29.918Z,7.06
2023-12-30T05:27:04.561Z,7.04
2023-12-30T05:29:37.872Z,6.99
2023-12-30T05:32:11.327Z,6.95
2023-12-30T05:34:44.774Z,6.87
2023-12-30T05:37:18.479Z,6.81
2023-12-30T05:39:52.514Z,6.73
2023-12-30T05:42:27.295Z,6.64
2023-12-30T05:45:01.089Z,6.56
2023-12-30T05:47:34.658Z,6.49
2023-12-30T05:50:10.358Z,6.41
2023-12-30T05:52:49.938Z,6.34
2023-12-30T05:55:24.069Z,6.27
2023-12-30T05:57:57.811Z,6.19
2023-12-30T06:00:31.483Z,6.14
2023-12-30T06:03:05.454Z,6.09
2023-12-30T06:05:39.543Z,6.06
2023-12-30T06:08:13.032Z,6.02
2023-12-30T06:10:50.901Z,5.99
2023-12-30T06:13:24.594Z,5.97
2023-12-30T06:15:58.784Z,5.95
2023-12-30T06:18:33.568Z,5.93
2023-12-30T06:21:07.698Z,5.93
2023-12-30T06:23:41.470Z,5.95
2023-12-30T06:26:14.734Z,6.00
2023-12-30T06:28:49.625Z,6.04
2023-12-30T06:31:23.779Z,6.10
2023-12-30T06:34:00.227Z,6.14
2023-12-30T06:36:34.195Z,6.19
2023-12-30T06:39:07.778Z,6.25
2023-12-30T06:41:41.824Z,6.32
2023-12-30T06:44:15.591Z,6.40
2023-12-30T06:46:49.436Z,6.49
2023-12-30T06:49:23.266Z,6.58
2023-12-30T06:51:57.263Z,6.66
2023-12-30T06:54:30.874Z,6.70
2023-12-30T06:57:04.436Z,6.72
2023-12-30T06:59:38.436Z,6.73
2023-12-30T07:02:12.481Z,6.75
2023-12-30T07:04:46.398Z,6.77
2023-12-30T07:07:20.213Z,6.78
2023-12-30T07:09:53.850Z,6.79
2023-12-30T07:12:27.471Z,6.81
2023-12-30T07:15:02.084Z,6.86
2023-12-30T07:17:35.890Z,6.87
2023-12-30T07:20:11.285Z,6.72
2023-12-30T07:22:44.801Z,6.54
2023-12-30T07:25:19.082Z,6.36
2023-12-30T07:27:53.815Z,6.21
2023-12-30T07:30:27.538Z,6.09
2023-12-30T07:33:01.701Z,5.99
2023-12-30T07:35:35.359Z,5.89
2023-12-30T07:38:08.886Z,5.80
2023-12-30T07:40:42.841Z,5.72
2023-12-30T07:43:17.253Z,5.65
2023-12-30T07:45:50.595Z,5.60
2023-12-30T07:48:34.639Z,5.56
2023-12-30T07:51:13.217Z,5.54
2023-12-30T07:53:59.286Z,5.53
2023-12-30T07:56:37.912Z,5.52
2023-12-30T07:59:12.826Z,5.52
2023-12-30T08:01:47.787Z,5.53
2023-12-30T08:04:22.305Z,5.54
2023-12-30T08:06:57.679Z,5.54
2023-12-30T08:09:33.009Z,5.53
2023-12-30T08:12:07.118Z,5.52
2023-12-30T08:14:41.479Z,5.50
2023-12-30T08:17:16.549Z,5.48
2023-12-30T08:19:50.313Z,5.45
2023-12-30T08:22:24.981Z,5.42
2023-12-30T08:25:00.676Z,5.40
2023-12-30T08:27:35.387Z,5.41
2023-12-30T08:30:13.011Z,5.44
2023-12-30T08:32:47.233Z,5.48
2023-12-30T08:35:22.588Z,5.52
2023-12-30T08:37:56.568Z,5.56
2023-12-30T08:40:33.163Z,5.61
2023-12-30T08:43:09.118Z,5.69
2023-12-30T08:45:43.620Z,5.76
2023-12-30T08:48:18.215Z,5.84
2023-12-30T08:50:53.618Z,5.93
2023-12-30T08:53:29.136Z,6.02
2023-12-30T08:56:04.366Z,6.11
2023-12-30T08:58:39.566Z,6.17
2023-12-30T09:01:14.077Z,6.23
2023-12-30T09:03:47.945Z,6.27
2023-12-30T09:06:21.732Z,6.31
2023-12-30T09:08:56.268Z,6.34
2023-12-30T09:11:30.281Z,6.38
2023-12-30T09:14:04.326Z,6.45
2023-12-30T09:16:38.779Z,6.52
2023-12-30T09:19:12.914Z,6.56
2023-12-30T09:21:46.952Z,6.60
2023-12-30T09:24:21.334Z,6.63
2023-12-30T09:26:55.440Z,6.67
2023-12-30T09:29:30.097Z,6.70
2023-12-30T09:32:04.342Z,6.72
2023-12-30T09:34:42.101Z,6.74
2023-12-30T09:37:20.144Z,6.74
2023-12-30T09:39:55.310Z,6.76
2023-12-30T09:42:30.408Z,6.76
2023-12-30T09:45:04.841Z,6.78
2023-12-30T09:47:39.636Z,6.81
2023-12-30T09:50:14.444Z,6.85
2023-12-30T09:52:48.457Z,6.88
2023-12-30T09:55:22.290Z,6.93
2023-12-30T09:57:56.570Z,7.01
2023-12-30T10:00:33.775Z,7.06
2023-12-30T10:03:08.367Z,7.11
2023-12-30T10:05:44.699Z,7.14
2023-12-30T10:08:19.060Z,7.17
2023-12-30T10:10:55.242Z,7.22
2023-12-30T10:13:29.747Z,7.27
2023-12-30T10:16:06.676Z,7.32
2023-12-30T10:18:41.314Z,7.39
2023-12-30T10:21:15.610Z,7.44
2023-12-30T10:23:53.076Z,7.52
2023-12-30T10:26:27.314Z,7.58
2023-12-30T10:29:01.084Z,7.62
2023-12-30T10:31:34.963Z,7.66
2023-12-30T10:34:09.867Z,7.71
2023-12-30T10:36:45.174Z,7.78
2023-12-30T10:39:22.443Z,7.87
2023-12-30T10:41:58.591Z,7.97
2023-12-30T10:44:32.482Z,8.09
2023-12-30T10:47:08.302Z,8.18
2023-12-30T10:49:43.583Z,8.23
2023-12-30T10:52:19.030Z,8.26
2023-12-30T10:55:02.528Z,8.30
2023-12-30T10:57:40.431Z,8.34
2023-12-30T11:00:17.190Z,8.39
2023-12-30T11:02:51.732Z,8.45
2023-12-30T11:05:31.159Z,8.51
2023-12-30T11:08:12.178Z,8.57
2023-12-30T11:10:53.283Z,8.63
2023-12-30T11:13:28.439Z,8.68
2023-12-30T11:16:17.516Z,8.72
2023-12-30T11:18:55.623Z,8.74
2023-12-30T11:22:35.689Z,8.75
2023-12-30T11:25:24.082Z,8.78
2023-12-30T11:28:02.634Z,8.78
2023-12-30T11:30:38.254Z,8.78
2023-12-30T11:33:13.855Z,8.79
2023-12-30T11:35:49.996Z,8.80
2023-12-30T11:38:26.274Z,8.81
2023-12-30T11:41:05.700Z,8.81
2023-12-30T11:43:41.526Z,8.78
2023-12-30T11:46:16.877Z,8.76
2023-12-30T11:48:54.311Z,8.73
2023-12-30T11:51:31.163Z,8.69
2023-12-30T11:54:07.734Z,8.67
2023-12-30T11:56:44.322Z,8.63
2023-12-30T11:59:19.105Z,8.60
2023-12-30T12:01:54.820Z,8.55
2023-12-30T12:04:31.650Z,8.52
2023-12-30T12:07:08.001Z,8.49
2023-12-30T12:09:45.028Z,8.46
2023-12-30T12:12:26.151Z,8.46
2023-12-30T12:15:05.546Z,8.44
2023-12-30T12:17:41.569Z,8.43
2023-12-30T12:23:05.278Z,8.49
2023-12-30T12:25:40.546Z,8.56
2023-12-30T12:28:18.325Z,8.60
2023-12-30T12:30:53.790Z,8.64
2023-12-30T12:33:29.160Z,8.67
2023-12-30T12:36:07.715Z,8.72
2023-12-30T12:38:43.032Z,8.76
2023-12-30T12:41:18.226Z,8.77
2023-12-30T12:43:54.043Z,8.80
2023-12-30T12:46:30.029Z,8.85
2023-12-30T12:49:06.707Z,8.90
2023-12-30T12:51:42.704Z,8.91
2023-12-30T12:54:20.551Z,8.93
2023-12-30T12:56:55.672Z,8.93
2023-12-30T12:59:30.709Z,8.92
2023-12-30T13:02:06.349Z,8.91
2023-12-30T13:04:43.040Z,8.89
2023-12-30T13:07:18.207Z,8.84
2023-12-30T13:10:00.999Z,8.81
2023-12-30T13:12:36.030Z,8.76
2023-12-30T13:15:17.434Z,8.75
2023-12-30T13:17:52.684Z,8.70
2023-12-30T13:20:28.734Z,8.65
2023-12-30T13:23:07.169Z,8.61
2023-12-30T13:25:41.678Z,8.57
2023-12-30T13:28:17.502Z,8.53
2023-12-30T13:30:52.699Z,8.49
2023-12-30T13:33:27.765Z,8.46
2023-12-30T13:36:06.265Z,8.45
2023-12-30T13:38:45.635Z,8.43
2023-12-30T13:41:24.456Z,8.41
2023-12-30T13:44:00.426Z,8.41
2023-12-30T13:46:51.625Z,8.40
2023-12-30T13:50:01.115Z,8.39
2023-12-30T13:52:38.473Z,8.36
2023-12-30T13:55:16.786Z,8.30
2023-12-30T13:57:54.620Z,8.23
2023-12-30T14:00:30.228Z,8.17
2023-12-30T14:03:08.538Z,8.11
2023-12-30T14:05:47.382Z,8.05
2023-12-30T14:08:51.625Z,7.98
2023-12-30T14:11:36.199Z,7.87
2023-12-30T14:14:13.723Z,7.77
2023-12-30T14:16:49.091Z,7.68
2023-12-30T14:19:24.186Z,7.63
2023-12-30T14:22:01.307Z,7.58
2023-12-30T14:24:36.879Z,7.53
2023-12-30T14:27:13.600Z,7.47
2023-12-30T14:29:50.363Z,7.37
2023-12-30T14:32:25.522Z,7.27
2023-12-30T14:35:00.150Z,7.17
2023-12-30T14:37:37.862Z,7.08
2023-12-30T14:40:14.572Z,7.00
2023-12-30T14:42:50.599Z,6.97
2023-12-30T14:45:25.597Z,6.94
2023-12-30T14:48:01.560Z,6.92
2023-12-30T14:50:36.027Z,6.89
2023-12-30T14:53:12.713Z,6.87
2023-12-30T14:55:49.962Z,6.86
2023-12-30T14:58:27.857Z,6.86
2023-12-30T15:01:02.974Z,6.86
2023-12-30T15:03:42.280Z,6.87
2023-12-30T15:06:17.134Z,6.87
2023-12-30T15:08:53.359Z,6.90
2023-12-30T15:11:28.627Z,6.92
2023-12-30T15:14:06.259Z,6.92
2023-12-30T15:16:41.875Z,6.90
2023-12-30T15:19:19.597Z,6.86
2023-12-30T15:21:54.534Z,6.83
2023-12-30T15:24:28.730Z,6.82
2023-12-30T15:27:03.864Z,6.80
2023-12-30T15:29:37.869Z,6.78
2023-12-30T15:32:13.203Z,6.77
2023-12-30T15:34:47.758Z,6.77
2023-12-30T15:37:22.671Z,6.77
2023-12-30T15:39:56.857Z,6.76
2023-12-30T15:42:38.010Z,6.74
2023-12-30T15:45:13.487Z,6.73
2023-12-30T15:47:49.865Z,6.69
2023-12-30T15:50:27.315Z,6.66
2023-12-30T15:53:01.514Z,6.63
2023-12-30T15:55:35.605Z,6.61
2023-12-30T15:58:09.755Z,6.58
2023-12-30T16:00:43.827Z,6.55
2023-12-30T16:03:18.116Z,6.51
2023-12-30T16:05:52.594Z,6.45
2023-12-30T16:08:27.048Z,6.40
2023-12-30T16:11:01.158Z,6.35
2023-12-30T16:13:36.252Z,6.32
2023-12-30T16:16:11.145Z,6.29
2023-12-30T16:18:45.632Z,6.27
2023-12-30T16:21:19.946Z,6.25
2023-12-30T16:23:55.372Z,6.23
2023-12-30T16:26:30.309Z,6.22
2023-12-30T16:29:04.776Z,6.20
2023-12-30T16:31:40.017Z,6.19
2023-12-30T16:34:14.752Z,6.16
2023-12-30T16:36:49.039Z,6.14
2023-12-30T16:39:25.362Z,6.11
2023-12-30T16:41:59.192Z,6.07
2023-12-30T16:44:33.192Z,6.03
2023-12-30T16:47:07.684Z,6.00
2023-12-30T16:49:41.860Z,5.98
2023-12-30T16:52:15.909Z,5.95
2023-12-30T16:54:50.486Z,5.92
2023-12-30T16:57:24.314Z,5.89
2023-12-30T16:59:58.852Z,5.86
2023-12-30T17:02:32.632Z,5.82
2023-12-30T17:05:07.459Z,5.78
2023-12-30T17:07:41.748Z,5.74
2023-12-30T17:10:15.470Z,5.69
2023-12-30T17:12:50.501Z,5.66
2023-12-30T17:15:25.456Z,5.62
2023-12-30T17:17:59.885Z,5.60
2023-12-30T17:20:35.629Z,5.57
2023-12-30T17:23:09.914Z,5.55
2023-12-30T17:25:43.981Z,5.54
2023-12-30T17:28:19.885Z,5.52
2023-12-30T17:30:55.080Z,5.50
2023-12-30T17:33:29.571Z,5.49
2023-12-30T17:36:04.342Z,5.48
2023-12-30T17:38:38.551Z,5.46
2023-12-30T17:41:13.073Z,5.43
2023-12-30T17:43:51.143Z,5.42
2023-12-30T17:46:26.063Z,5.41
2023-12-30T17:49:00.762Z,5.39
2023-12-30T17:51:35.108Z,5.38
2023-12-30T17:54:10.544Z,5.35
2023-12-30T17:56:46.570Z,5.33
2023-12-30T17:59:24.262Z,5.32
2023-12-30T18:01:59.510Z,5.30
2023-12-30T18:04:33.418Z,5.29
2023-12-30T18:07:08.080Z,5.27
2023-12-30T18:09:46.908Z,5.26
2023-12-30T18:12:21.980Z,5.22
2023-12-30T18:14:56.074Z,5.21
2023-12-30T18:17:31.949Z,5.19
2023-12-30T18:20:06.360Z,5.17
2023-12-30T18:22:41.965Z,5.15
2023-12-30T18:25:16.933Z,5.13
2023-12-30T18:27:50.941Z,5.11
2023-12-30T18:30:25.425Z,5.08
2023-12-30T18:33:00.915Z,5.06
2023-12-30T18:35:36.055Z,5.04
2023-12-30T18:38:11.925Z,5.03
2023-12-30T18:40:46.393Z,5.02
2023-12-30T18:43:21.692Z,5.00
2023-12-30T18:45:55.898Z,4.99
2023-12-30T18:48:31.772Z,4.97
2023-12-30T18:51:06.450Z,4.95
2023-12-30T18:53:41.098Z,4.94
2023-12-30T18:56:15.090Z,4.93
2023-12-30T18:58:49.807Z,4.95
2023-12-30T19:01:26.624Z,4.97
2023-12-30T19:04:03.677Z,4.99
2023-12-30T19:06:37.902Z,5.01
2023-12-30T19:09:14.577Z,5.04
2023-12-30T19:11:50.274Z,5.07
2023-12-30T19:14:25.225Z,5.11
2023-12-30T19:16:59.674Z,5.15
2023-12-30T19:19:33.497Z,5.18
2023-12-30T19:22:08.825Z,5.21
2023-12-30T19:24:42.853Z,5.25
2023-12-30T19:27:16.775Z,5.28
2023-12-30T19:29:51.056Z,5.29
2023-12-30T19:32:27.623Z,5.30
2023-12-30T19:35:03.133Z,5.30
2023-12-30T19:37:37.475Z,5.31
2023-12-30T19:40:14.659Z,5.31
2023-12-30T19:42:49.031Z,5.31
2023-12-30T19:45:24.252Z,5.31
2023-12-30T19:47:59.028Z,5.31
2023-12-30T19:50:34.345Z,5.32
2023-12-30T19:53:08.683Z,5.33
2023-12-30T19:55:42.922Z,5.35
2023-12-30T19:58:16.769Z,5.35
2023-12-30T20:00:51.189Z,5.35
2023-12-30T20:03:25.881Z,5.32
2023-12-30T20:06:01.012Z,5.31
2023-12-30T20:08:36.169Z,5.28
2023-12-30T20:11:11.123Z,5.27
2023-12-30T20:13:49.849Z,5.26
2023-12-30T20:16:24.222Z,5.25
2023-12-30T20:19:02.439Z,5.22
2023-12-30T20:21:36.527Z,5.21
2023-12-30T20:24:13.915Z,5.20
2023-12-30T20:26:49.827Z,5.18
2023-12-30T20:29:23.845Z,5.18
2023-12-30T20:31:57.914Z,5.17
2023-12-30T20:34:35.434Z,5.16
2023-12-30T20:37:10.111Z,5.13
2023-12-30T20:39:44.174Z,5.09
2023-12-30T20:42:20.034Z,5.07
2023-12-30T20:44:54.509Z,5.04
2023-12-30T20:47:29.928Z,5.01
2023-12-30T20:50:09.918Z,4.98
2023-12-30T20:52:45.839Z,4.96
2023-12-30T20:55:24.833Z,4.94
2023-12-30T20:58:00.910Z,4.92
2023-12-30T21:00:37.685Z,4.89
2023-12-30T21:03:11.714Z,4.87
2023-12-30T21:05:46.346Z,4.86
2023-12-30T21:08:20.304Z,4.85
2023-12-30T21:10:54.604Z,4.83
2023-12-30T21:13:28.744Z,4.81
2023-12-30T21:16:03.250Z,4.77
2023-12-30T21:18:40.359Z,4.73
2023-12-30T21:21:13.965Z,4.68
2023-12-30T21:23:49.544Z,4.64
2023-12-30T21:26:24.524Z,4.60
2023-12-30T21:28:59.219Z,4.57
2023-12-30T21:31:33.173Z,4.52
2023-12-30T21:34:13.827Z,4.48
2023-12-30T21:36:47.661Z,4.43
2023-12-30T21:39:22.726Z,4.40
2023-12-30T21:41:56.917Z,4.36
2023-12-30T21:44:31.002Z,4.33
2023-12-30T21:47:05.336Z,4.30
2023-12-30T21:49:42.810Z,4.27
2023-12-30T21:52:18.089Z,4.23
2023-12-30T21:54:52.117Z,4.18
2023-12-30T21:57:25.985Z,4.15
2023-12-30T22:00:01.197Z,4.10
2023-12-30T22:02:39.526Z,4.05
2023-12-30T22:05:15.065Z,4.02
2023-12-30T22:07:49.136Z,4.00
2023-12-30T22:10:23.418Z,3.97
2023-12-30T22:12:58.006Z,3.94
2023-12-30T22:15:31.792Z,3.92
2023-12-30T22:18:06.649Z,3.90
2023-12-30T22:20:41.023Z,3.90
2023-12-30T22:23:15.170Z,3.89
2023-12-30T22:25:49.252Z,3.87
2023-12-30T22:28:23.930Z,3.87
2023-12-30T22:30:59.471Z,3.86
2023-12-30T22:33:36.334Z,3.86
2023-12-30T22:36:11.145Z,3.85
2023-12-30T22:38:45.393Z,3.88
2023-12-30T22:41:21.190Z,3.91
2023-12-30T22:44:05.369Z,3.96
2023-12-30T22:46:47.550Z,4.02
2023-12-30T22:49:22.001Z,4.08
2023-12-30T22:51:56.659Z,4.13
2023-12-30T22:54:31.860Z,4.16
2023-12-30T22:57:09.927Z,4.18
2023-12-30T22:59:50.030Z,4.19
2023-12-30T23:02:24.370Z,4.18
2023-12-30T23:04:58.357Z,4.16
2023-12-30T23:07:32.607Z,4.13
2023-12-30T23:10:08.825Z,4.12
2023-12-30T23:12:43.717Z,4.10
2023-12-30T23:15:22.270Z,4.09
2023-12-30T23:18:00.166Z,4.12
2023-12-30T23:20:34.390Z,4.14
2023-12-30T23:23:09.518Z,4.17
2023-12-30T23:25:43.880Z,4.20
2023-12-30T23:28:20.639Z,4.24
2023-12-30T23:30:55.734Z,4.26
2023-12-30T23:33:30.178Z,4.27
2023-12-30T23:36:04.595Z,4.26
2023-12-30T23:38:38.718Z,4.25
2023-12-30T23:41:12.503Z,4.25
2023-12-30T23:43:46.490Z,4.26
2023-12-30T23:46:20.566Z,4.28
2023-12-30T23:48:57.533Z,4.30
2023-12-30T23:51:32.360Z,4.33
2023-12-30T23:54:06.678Z,4.33
2023-12-30T23:56:47.562Z,4.34
2023-12-30T23:59:21.872Z,4.34
